sensor_id;sensor_type;location;lat;lon;timestamp;P1;durP1;ratioP1;P2;durP2;ratioP2
3095;SDS011;1558;42.700;23.360;2024-01-06T00:01:33;115.37;;;102.87;;
3095;SDS011;1558;42.700;23.360;2024-01-06T00:04:01;111.33;;;96.93;;
3095;SDS011;1558;42.700;23.360;2024-01-06T00:06:30;111.63;;;98.90;;
3095;SDS011;1558;42.700;23.360;2024-01-06T00:08:59;103.30;;;87.87;;
3095;SDS011;1558;42.700;23.360;2024-01-06T00:11:27;101.47;;;90.57;;
3095;SDS011;1558;42.700;23.360;2024-01-06T00:13:56;94.97;;;82.20;;
3095;SDS011;1558;42.700;23.360;2024-01-06T00:16:25;89.67;;;78.83;;
3095;SDS011;1558;42.700;23.360;2024-01-06T00:18:55;115.47;;;101.13;;
3095;SDS011;1558;42.700;23.360;2024-01-06T00:21:23;116.70;;;104.00;;
3095;SDS011;1558;42.700;23.360;2024-01-06T00:23:53;102.67;;;86.63;;
3095;SDS011;1558;42.700;23.360;2024-01-06T00:26:22;96.10;;;81.13;;
3095;SDS011;1558;42.700;23.360;2024-01-06T00:28:51;88.73;;;77.80;;
3095;SDS011;1558;42.700;23.360;2024-01-06T00:31:19;90.70;;;76.33;;
3095;SDS011;1558;42.700;23.360;2024-01-06T00:33:49;105.77;;;91.13;;
3095;SDS011;1558;42.700;23.360;2024-01-06T00:36:17;107.50;;;91.63;;
3095;SDS011;1558;42.700;23.360;2024-01-06T00:38:46;101.10;;;89.53;;
3095;SDS011;1558;42.700;23.360;2024-01-06T00:41:14;95.03;;;80.97;;
3095;SDS011;1558;42.700;23.360;2024-01-06T00:43:42;91.40;;;80.87;;
3095;SDS011;1558;42.700;23.360;2024-01-06T00:46:10;95.23;;;78.27;;
3095;SDS011;1558;42.700;23.360;2024-01-06T00:48:39;93.23;;;80.13;;
3095;SDS011;1558;42.700;23.360;2024-01-06T00:51:09;87.00;;;77.33;;
3095;SDS011;1558;42.700;23.360;2024-01-06T00:53:37;93.63;;;81.00;;
3095;SDS011;1558;42.700;23.360;2024-01-06T00:56:05;95.17;;;81.27;;
3095;SDS011;1558;42.700;23.360;2024-01-06T00:58:33;95.30;;;78.90;;
3095;SDS011;1558;42.700;23.360;2024-01-06T01:01:02;93.23;;;80.90;;
3095;SDS011;1558;42.700;23.360;2024-01-06T01:03:30;92.20;;;81.80;;
3095;SDS011;1558;42.700;23.360;2024-01-06T01:05:59;92.50;;;79.10;;
3095;SDS011;1558;42.700;23.360;2024-01-06T01:08:28;91.13;;;77.57;;
3095;SDS011;1558;42.700;23.360;2024-01-06T01:10:57;89.17;;;78.90;;
3095;SDS011;1558;42.700;23.360;2024-01-06T01:13:25;91.37;;;77.33;;
3095;SDS011;1558;42.700;23.360;2024-01-06T01:15:53;106.53;;;90.97;;
3095;SDS011;1558;42.700;23.360;2024-01-06T01:18:22;123.17;;;105.00;;
3095;SDS011;1558;42.700;23.360;2024-01-06T01:20:50;113.97;;;100.27;;
3095;SDS011;1558;42.700;23.360;2024-01-06T01:23:18;111.40;;;97.30;;
3095;SDS011;1558;42.700;23.360;2024-01-06T01:25:48;106.57;;;92.13;;
3095;SDS011;1558;42.700;23.360;2024-01-06T01:28:16;104.30;;;92.80;;
3095;SDS011;1558;42.700;23.360;2024-01-06T01:30:45;106.80;;;95.23;;
3095;SDS011;1558;42.700;23.360;2024-01-06T01:33:13;108.77;;;96.33;;
3095;SDS011;1558;42.700;23.360;2024-01-06T01:35:42;106.17;;;93.60;;
3095;SDS011;1558;42.700;23.360;2024-01-06T01:38:10;111.03;;;94.47;;
3095;SDS011;1558;42.700;23.360;2024-01-06T01:40:39;112.23;;;98.60;;
3095;SDS011;1558;42.700;23.360;2024-01-06T01:43:16;108.07;;;96.23;;
3095;SDS011;1558;42.700;23.360;2024-01-06T01:45:45;127.87;;;113.93;;
3095;SDS011;1558;42.700;23.360;2024-01-06T01:48:18;121.83;;;105.67;;
3095;SDS011;1558;42.700;23.360;2024-01-06T01:50:47;137.57;;;121.07;;
3095;SDS011;1558;42.700;23.360;2024-01-06T01:53:16;137.57;;;122.53;;
3095;SDS011;1558;42.700;23.360;2024-01-06T01:55:44;139.17;;;119.93;;
3095;SDS011;1558;42.700;23.360;2024-01-06T01:58:14;125.00;;;111.33;;
3095;SDS011;1558;42.700;23.360;2024-01-06T02:00:45;130.30;;;114.50;;
3095;SDS011;1558;42.700;23.360;2024-01-06T02:03:14;149.10;;;130.43;;
3095;SDS011;1558;42.700;23.360;2024-01-06T02:05:44;143.87;;;125.17;;
3095;SDS011;1558;42.700;23.360;2024-01-06T02:08:12;145.00;;;122.17;;
3095;SDS011;1558;42.700;23.360;2024-01-06T02:10:40;158.20;;;132.80;;
3095;SDS011;1558;42.700;23.360;2024-01-06T02:13:09;152.57;;;132.00;;
3095;SDS011;1558;42.700;23.360;2024-01-06T02:15:39;141.27;;;121.37;;
3095;SDS011;1558;42.700;23.360;2024-01-06T02:18:08;140.20;;;122.53;;
3095;SDS011;1558;42.700;23.360;2024-01-06T02:20:36;133.53;;;117.07;;
3095;SDS011;1558;42.700;23.360;2024-01-06T02:23:06;125.60;;;111.53;;
3095;SDS011;1558;42.700;23.360;2024-01-06T02:25:35;117.90;;;104.90;;
3095;SDS011;1558;42.700;23.360;2024-01-06T02:28:03;127.83;;;109.17;;
3095;SDS011;1558;42.700;23.360;2024-01-06T02:30:32;129.20;;;114.13;;
3095;SDS011;1558;42.700;23.360;2024-01-06T02:33:00;137.60;;;116.10;;
3095;SDS011;1558;42.700;23.360;2024-01-06T02:35:28;132.93;;;116.20;;
3095;SDS011;1558;42.700;23.360;2024-01-06T02:37:56;133.17;;;112.07;;
3095;SDS011;1558;42.700;23.360;2024-01-06T02:40:25;125.53;;;109.80;;
3095;SDS011;1558;42.700;23.360;2024-01-06T02:42:53;127.33;;;109.43;;
3095;SDS011;1558;42.700;23.360;2024-01-06T02:45:22;132.93;;;109.23;;
3095;SDS011;1558;42.700;23.360;2024-01-06T02:47:50;125.33;;;107.57;;
3095;SDS011;1558;42.700;23.360;2024-01-06T02:50:18;111.50;;;96.67;;
3095;SDS011;1558;42.700;23.360;2024-01-06T02:52:47;111.67;;;94.33;;
3095;SDS011;1558;42.700;23.360;2024-01-06T02:55:15;110.40;;;96.40;;
3095;SDS011;1558;42.700;23.360;2024-01-06T02:57:44;113.93;;;100.30;;
3095;SDS011;1558;42.700;23.360;2024-01-06T03:00:13;112.93;;;95.30;;
3095;SDS011;1558;42.700;23.360;2024-01-06T03:02:42;124.83;;;103.20;;
3095;SDS011;1558;42.700;23.360;2024-01-06T03:05:10;120.63;;;101.90;;
3095;SDS011;1558;42.700;23.360;2024-01-06T03:07:38;108.40;;;92.07;;
3095;SDS011;1558;42.700;23.360;2024-01-06T03:10:07;106.03;;;88.07;;
3095;SDS011;1558;42.700;23.360;2024-01-06T03:12:35;126.33;;;103.97;;
3095;SDS011;1558;42.700;23.360;2024-01-06T03:15:05;115.53;;;99.47;;
3095;SDS011;1558;42.700;23.360;2024-01-06T03:17:34;119.40;;;102.13;;
3095;SDS011;1558;42.700;23.360;2024-01-06T03:20:02;116.40;;;95.17;;
3095;SDS011;1558;42.700;23.360;2024-01-06T03:22:31;113.50;;;95.80;;
3095;SDS011;1558;42.700;23.360;2024-01-06T03:25:00;107.67;;;92.83;;
3095;SDS011;1558;42.700;23.360;2024-01-06T03:27:29;110.03;;;90.27;;
3095;SDS011;1558;42.700;23.360;2024-01-06T03:29:57;105.80;;;91.40;;
3095;SDS011;1558;42.700;23.360;2024-01-06T03:32:26;101.80;;;85.73;;
3095;SDS011;1558;42.700;23.360;2024-01-06T03:34:55;102.60;;;85.97;;
3095;SDS011;1558;42.700;23.360;2024-01-06T03:37:23;93.03;;;80.47;;
3095;SDS011;1558;42.700;23.360;2024-01-06T03:39:52;104.00;;;90.43;;
3095;SDS011;1558;42.700;23.360;2024-01-06T03:42:20;121.77;;;102.27;;
3095;SDS011;1558;42.700;23.360;2024-01-06T03:44:48;130.13;;;104.37;;
3095;SDS011;1558;42.700;23.360;2024-01-06T03:47:16;128.33;;;106.00;;
3095;SDS011;1558;42.700;23.360;2024-01-06T03:49:46;141.27;;;113.20;;
3095;SDS011;1558;42.700;23.360;2024-01-06T03:52:15;148.67;;;121.67;;
3095;SDS011;1558;42.700;23.360;2024-01-06T03:54:43;142.73;;;117.80;;
3095;SDS011;1558;42.700;23.360;2024-01-06T03:57:11;138.10;;;108.17;;
3095;SDS011;1558;42.700;23.360;2024-01-06T03:59:40;105.50;;;88.83;;
3095;SDS011;1558;42.700;23.360;2024-01-06T04:02:08;110.53;;;91.10;;
3095;SDS011;1558;42.700;23.360;2024-01-06T04:04:36;107.43;;;87.70;;
3095;SDS011;1558;42.700;23.360;2024-01-06T04:07:06;109.53;;;93.00;;
3095;SDS011;1558;42.700;23.360;2024-01-06T04:09:34;94.60;;;78.07;;
3095;SDS011;1558;42.700;23.360;2024-01-06T04:12:02;78.13;;;67.37;;
3095;SDS011;1558;42.700;23.360;2024-01-06T04:14:31;68.97;;;58.67;;
3095;SDS011;1558;42.700;23.360;2024-01-06T04:16:59;66.43;;;55.73;;
3095;SDS011;1558;42.700;23.360;2024-01-06T04:19:27;74.77;;;63.83;;
3095;SDS011;1558;42.700;23.360;2024-01-06T04:21:55;92.70;;;81.43;;
3095;SDS011;1558;42.700;23.360;2024-01-06T04:24:25;87.33;;;73.37;;
3095;SDS011;1558;42.700;23.360;2024-01-06T04:26:54;86.40;;;73.57;;
3095;SDS011;1558;42.700;23.360;2024-01-06T04:29:22;73.77;;;60.90;;
3095;SDS011;1558;42.700;23.360;2024-01-06T04:31:50;65.80;;;56.80;;
3095;SDS011;1558;42.700;23.360;2024-01-06T04:34:18;62.77;;;53.80;;
3095;SDS011;1558;42.700;23.360;2024-01-06T04:36:46;58.37;;;51.40;;
3095;SDS011;1558;42.700;23.360;2024-01-06T04:39:15;60.03;;;52.67;;
3095;SDS011;1558;42.700;23.360;2024-01-06T04:41:45;59.53;;;48.63;;
3095;SDS011;1558;42.700;23.360;2024-01-06T04:44:13;57.37;;;47.73;;
3095;SDS011;1558;42.700;23.360;2024-01-06T04:46:41;50.67;;;45.17;;
3095;SDS011;1558;42.700;23.360;2024-01-06T04:49:09;55.37;;;45.63;;
3095;SDS011;1558;42.700;23.360;2024-01-06T04:51:38;53.50;;;43.73;;
3095;SDS011;1558;42.700;23.360;2024-01-06T04:54:07;49.50;;;43.40;;
3095;SDS011;1558;42.700;23.360;2024-01-06T04:56:35;52.47;;;44.53;;
3095;SDS011;1558;42.700;23.360;2024-01-06T04:59:05;50.43;;;44.63;;
3095;SDS011;1558;42.700;23.360;2024-01-06T05:01:33;52.40;;;43.10;;
3095;SDS011;1558;42.700;23.360;2024-01-06T05:04:01;56.87;;;46.10;;
3095;SDS011;1558;42.700;23.360;2024-01-06T05:06:30;55.00;;;45.53;;
3095;SDS011;1558;42.700;23.360;2024-01-06T05:08:58;55.00;;;48.57;;
3095;SDS011;1558;42.700;23.360;2024-01-06T05:11:26;60.27;;;51.20;;
3095;SDS011;1558;42.700;23.360;2024-01-06T05:13:54;55.97;;;47.60;;
3095;SDS011;1558;42.700;23.360;2024-01-06T05:16:24;54.93;;;47.47;;
3095;SDS011;1558;42.700;23.360;2024-01-06T05:18:52;58.77;;;49.63;;
3095;SDS011;1558;42.700;23.360;2024-01-06T05:21:21;57.47;;;49.87;;
3095;SDS011;1558;42.700;23.360;2024-01-06T05:23:49;61.47;;;52.43;;
3095;SDS011;1558;42.700;23.360;2024-01-06T05:26:18;65.07;;;55.10;;
3095;SDS011;1558;42.700;23.360;2024-01-06T05:28:46;68.73;;;58.03;;
3095;SDS011;1558;42.700;23.360;2024-01-06T05:31:14;63.47;;;53.60;;
3095;SDS011;1558;42.700;23.360;2024-01-06T05:33:44;65.87;;;54.90;;
3095;SDS011;1558;42.700;23.360;2024-01-06T05:36:12;65.97;;;53.27;;
3095;SDS011;1558;42.700;23.360;2024-01-06T05:38:40;61.90;;;50.57;;
3095;SDS011;1558;42.700;23.360;2024-01-06T05:41:08;51.07;;;41.43;;
3095;SDS011;1558;42.700;23.360;2024-01-06T05:43:37;49.17;;;40.40;;
3095;SDS011;1558;42.700;23.360;2024-01-06T05:46:05;45.70;;;38.50;;
3095;SDS011;1558;42.700;23.360;2024-01-06T05:48:33;48.00;;;39.03;;
3095;SDS011;1558;42.700;23.360;2024-01-06T05:51:03;46.63;;;39.40;;
3095;SDS011;1558;42.700;23.360;2024-01-06T05:53:32;63.13;;;51.00;;
3095;SDS011;1558;42.700;23.360;2024-01-06T05:56:00;28.70;;;24.67;;
3095;SDS011;1558;42.700;23.360;2024-01-06T05:58:29;39.73;;;33.17;;
3095;SDS011;1558;42.700;23.360;2024-01-06T06:00:57;21.10;;;17.50;;
3095;SDS011;1558;42.700;23.360;2024-01-06T06:03:25;22.20;;;17.13;;
3095;SDS011;1558;42.700;23.360;2024-01-06T06:05:54;13.43;;;12.00;;
3095;SDS011;1558;42.700;23.360;2024-01-06T06:08:23;18.40;;;15.23;;
3095;SDS011;1558;42.700;23.360;2024-01-06T06:10:52;13.17;;;10.83;;
3095;SDS011;1558;42.700;23.360;2024-01-06T06:13:28;12.53;;;11.23;;
3095;SDS011;1558;42.700;23.360;2024-01-06T06:15:57;10.27;;;9.10;;
3095;SDS011;1558;42.700;23.360;2024-01-06T06:18:25;14.87;;;11.93;;
3095;SDS011;1558;42.700;23.360;2024-01-06T06:20:54;13.07;;;11.07;;
3095;SDS011;1558;42.700;23.360;2024-01-06T06:23:24;16.10;;;14.27;;
3095;SDS011;1558;42.700;23.360;2024-01-06T06:25:52;14.10;;;12.60;;
3095;SDS011;1558;42.700;23.360;2024-01-06T06:28:20;14.73;;;13.23;;
3095;SDS011;1558;42.700;23.360;2024-01-06T06:30:48;15.60;;;12.30;;
3095;SDS011;1558;42.700;23.360;2024-01-06T06:33:17;13.67;;;11.30;;
3095;SDS011;1558;42.700;23.360;2024-01-06T06:35:45;15.10;;;13.13;;
3095;SDS011;1558;42.700;23.360;2024-01-06T06:38:13;9.50;;;8.37;;
3095;SDS011;1558;42.700;23.360;2024-01-06T06:40:43;9.97;;;8.77;;
3095;SDS011;1558;42.700;23.360;2024-01-06T06:43:12;13.07;;;10.90;;
3095;SDS011;1558;42.700;23.360;2024-01-06T06:45:44;14.90;;;11.83;;
3095;SDS011;1558;42.700;23.360;2024-01-06T06:48:12;16.47;;;12.63;;
3095;SDS011;1558;42.700;23.360;2024-01-06T06:50:41;14.80;;;13.27;;
3095;SDS011;1558;42.700;23.360;2024-01-06T06:53:10;19.60;;;13.67;;
3095;SDS011;1558;42.700;23.360;2024-01-06T06:55:39;15.10;;;10.90;;
3095;SDS011;1558;42.700;23.360;2024-01-06T06:58:09;15.53;;;12.07;;
3095;SDS011;1558;42.700;23.360;2024-01-06T07:00:37;11.00;;;8.83;;
3095;SDS011;1558;42.700;23.360;2024-01-06T07:03:06;13.07;;;10.63;;
3095;SDS011;1558;42.700;23.360;2024-01-06T07:05:36;15.47;;;12.17;;
3095;SDS011;1558;42.700;23.360;2024-01-06T07:08:05;20.23;;;13.90;;
3095;SDS011;1558;42.700;23.360;2024-01-06T07:10:34;14.87;;;12.50;;
3095;SDS011;1558;42.700;23.360;2024-01-06T07:13:02;18.97;;;14.87;;
3095;SDS011;1558;42.700;23.360;2024-01-06T07:15:33;18.13;;;13.17;;
3095;SDS011;1558;42.700;23.360;2024-01-06T07:18:01;20.93;;;14.30;;
3095;SDS011;1558;42.700;23.360;2024-01-06T07:20:30;17.33;;;13.57;;
3095;SDS011;1558;42.700;23.360;2024-01-06T07:22:58;18.90;;;14.47;;
3095;SDS011;1558;42.700;23.360;2024-01-06T07:25:26;19.40;;;15.03;;
3095;SDS011;1558;42.700;23.360;2024-01-06T07:27:54;18.17;;;14.43;;
3095;SDS011;1558;42.700;23.360;2024-01-06T07:30:23;22.97;;;16.27;;
3095;SDS011;1558;42.700;23.360;2024-01-06T07:32:53;20.90;;;15.70;;
3095;SDS011;1558;42.700;23.360;2024-01-06T07:35:21;18.63;;;14.03;;
3095;SDS011;1558;42.700;23.360;2024-01-06T07:37:49;19.37;;;14.67;;
3095;SDS011;1558;42.700;23.360;2024-01-06T07:40:17;20.57;;;15.53;;
3095;SDS011;1558;42.700;23.360;2024-01-06T07:42:46;22.17;;;17.47;;
3095;SDS011;1558;42.700;23.360;2024-01-06T07:45:16;26.80;;;18.60;;
3095;SDS011;1558;42.700;23.360;2024-01-06T07:47:46;20.37;;;16.83;;
3095;SDS011;1558;42.700;23.360;2024-01-06T07:50:16;31.87;;;28.03;;
3095;SDS011;1558;42.700;23.360;2024-01-06T07:52:44;35.03;;;29.97;;
3095;SDS011;1558;42.700;23.360;2024-01-06T07:55:13;37.13;;;33.23;;
3095;SDS011;1558;42.700;23.360;2024-01-06T07:57:41;39.23;;;32.07;;
3095;SDS011;1558;42.700;23.360;2024-01-06T08:00:11;44.40;;;35.93;;
3095;SDS011;1558;42.700;23.360;2024-01-06T08:02:41;41.73;;;37.13;;
3095;SDS011;1558;42.700;23.360;2024-01-06T08:05:10;45.93;;;41.13;;
3095;SDS011;1558;42.700;23.360;2024-01-06T08:07:40;44.23;;;39.53;;
3095;SDS011;1558;42.700;23.360;2024-01-06T08:10:14;45.83;;;38.27;;
3095;SDS011;1558;42.700;23.360;2024-01-06T08:12:42;46.37;;;41.53;;
3095;SDS011;1558;42.700;23.360;2024-01-06T08:15:10;44.57;;;39.13;;
3095;SDS011;1558;42.700;23.360;2024-01-06T08:17:39;49.43;;;41.40;;
3095;SDS011;1558;42.700;23.360;2024-01-06T08:20:09;43.20;;;38.57;;
3095;SDS011;1558;42.700;23.360;2024-01-06T08:22:40;40.00;;;35.47;;
3095;SDS011;1558;42.700;23.360;2024-01-06T08:25:08;35.17;;;31.20;;
3095;SDS011;1558;42.700;23.360;2024-01-06T08:27:37;40.13;;;35.93;;
3095;SDS011;1558;42.700;23.360;2024-01-06T08:30:06;37.87;;;33.77;;
3095;SDS011;1558;42.700;23.360;2024-01-06T08:32:36;34.37;;;30.70;;
3095;SDS011;1558;42.700;23.360;2024-01-06T08:35:04;34.97;;;30.13;;
3095;SDS011;1558;42.700;23.360;2024-01-06T08:37:33;32.13;;;27.53;;
3095;SDS011;1558;42.700;23.360;2024-01-06T08:40:04;29.57;;;26.47;;
3095;SDS011;1558;42.700;23.360;2024-01-06T08:42:33;29.70;;;26.07;;
3095;SDS011;1558;42.700;23.360;2024-01-06T08:45:01;29.97;;;26.73;;
3095;SDS011;1558;42.700;23.360;2024-01-06T08:47:30;34.20;;;28.67;;
3095;SDS011;1558;42.700;23.360;2024-01-06T08:49:59;38.53;;;28.30;;
3095;SDS011;1558;42.700;23.360;2024-01-06T08:52:28;32.70;;;26.60;;
3095;SDS011;1558;42.700;23.360;2024-01-06T08:54:56;31.20;;;27.90;;
3095;SDS011;1558;42.700;23.360;2024-01-06T08:57:26;28.17;;;24.97;;
3095;SDS011;1558;42.700;23.360;2024-01-06T08:59:55;38.07;;;29.67;;
3095;SDS011;1558;42.700;23.360;2024-01-06T09:02:23;37.83;;;32.70;;
3095;SDS011;1558;42.700;23.360;2024-01-06T09:04:52;33.63;;;28.17;;
3095;SDS011;1558;42.700;23.360;2024-01-06T09:07:20;38.13;;;27.67;;
3095;SDS011;1558;42.700;23.360;2024-01-06T09:09:48;39.50;;;28.03;;
3095;SDS011;1558;42.700;23.360;2024-01-06T09:12:19;26.53;;;23.07;;
3095;SDS011;1558;42.700;23.360;2024-01-06T09:14:48;32.87;;;23.67;;
3095;SDS011;1558;42.700;23.360;2024-01-06T09:17:17;38.13;;;27.07;;
3095;SDS011;1558;42.700;23.360;2024-01-06T09:19:45;29.87;;;25.27;;
3095;SDS011;1558;42.700;23.360;2024-01-06T09:22:15;31.13;;;27.17;;
3095;SDS011;1558;42.700;23.360;2024-01-06T09:24:44;30.93;;;23.77;;
3095;SDS011;1558;42.700;23.360;2024-01-06T09:27:13;33.37;;;25.80;;
3095;SDS011;1558;42.700;23.360;2024-01-06T09:29:41;32.70;;;24.70;;
3095;SDS011;1558;42.700;23.360;2024-01-06T09:32:11;33.67;;;24.93;;
3095;SDS011;1558;42.700;23.360;2024-01-06T09:34:39;37.87;;;25.37;;
3095;SDS011;1558;42.700;23.360;2024-01-06T09:37:08;28.63;;;24.53;;
3095;SDS011;1558;42.700;23.360;2024-01-06T09:39:36;33.70;;;25.43;;
3095;SDS011;1558;42.700;23.360;2024-01-06T09:42:06;34.03;;;24.10;;
3095;SDS011;1558;42.700;23.360;2024-01-06T09:44:35;33.27;;;25.10;;
3095;SDS011;1558;42.700;23.360;2024-01-06T09:47:03;32.07;;;24.03;;
3095;SDS011;1558;42.700;23.360;2024-01-06T09:49:34;31.43;;;25.03;;
3095;SDS011;1558;42.700;23.360;2024-01-06T09:52:10;29.57;;;23.57;;
3095;SDS011;1558;42.700;23.360;2024-01-06T09:54:46;38.70;;;24.37;;
3095;SDS011;1558;42.700;23.360;2024-01-06T09:57:19;29.97;;;23.40;;
3095;SDS011;1558;42.700;23.360;2024-01-06T09:59:48;31.57;;;25.40;;
3095;SDS011;1558;42.700;23.360;2024-01-06T10:02:16;31.20;;;25.63;;
3095;SDS011;1558;42.700;23.360;2024-01-06T10:04:48;35.17;;;26.57;;
3095;SDS011;1558;42.700;23.360;2024-01-06T10:07:17;31.70;;;23.53;;
3095;SDS011;1558;42.700;23.360;2024-01-06T10:09:46;33.60;;;26.90;;
3095;SDS011;1558;42.700;23.360;2024-01-06T10:12:14;34.00;;;26.50;;
3095;SDS011;1558;42.700;23.360;2024-01-06T10:14:44;34.10;;;22.73;;
3095;SDS011;1558;42.700;23.360;2024-01-06T10:17:14;31.20;;;27.80;;
3095;SDS011;1558;42.700;23.360;2024-01-06T10:19:44;37.83;;;26.60;;
3095;SDS011;1558;42.700;23.360;2024-01-06T10:22:16;37.20;;;29.50;;
3095;SDS011;1558;42.700;23.360;2024-01-06T10:24:47;35.80;;;25.97;;
3095;SDS011;1558;42.700;23.360;2024-01-06T10:27:15;36.73;;;28.07;;
3095;SDS011;1558;42.700;23.360;2024-01-06T10:29:45;43.93;;;32.07;;
3095;SDS011;1558;42.700;23.360;2024-01-06T10:32:13;40.43;;;28.87;;
3095;SDS011;1558;42.700;23.360;2024-01-06T10:34:45;39.50;;;29.17;;
3095;SDS011;1558;42.700;23.360;2024-01-06T10:37:14;35.13;;;26.17;;
3095;SDS011;1558;42.700;23.360;2024-01-06T10:39:46;35.03;;;24.43;;
3095;SDS011;1558;42.700;23.360;2024-01-06T10:42:14;40.77;;;30.30;;
3095;SDS011;1558;42.700;23.360;2024-01-06T10:44:43;32.77;;;25.10;;
3095;SDS011;1558;42.700;23.360;2024-01-06T10:47:14;35.30;;;26.37;;
3095;SDS011;1558;42.700;23.360;2024-01-06T10:49:45;35.00;;;24.13;;
3095;SDS011;1558;42.700;23.360;2024-01-06T10:52:14;31.30;;;25.50;;
3095;SDS011;1558;42.700;23.360;2024-01-06T10:54:44;25.97;;;21.50;;
3095;SDS011;1558;42.700;23.360;2024-01-06T10:57:16;31.90;;;21.30;;
3095;SDS011;1558;42.700;23.360;2024-01-06T10:59:49;38.10;;;26.33;;
3095;SDS011;1558;42.700;23.360;2024-01-06T11:02:18;33.47;;;25.90;;
3095;SDS011;1558;42.700;23.360;2024-01-06T11:04:47;33.97;;;26.97;;
3095;SDS011;1558;42.700;23.360;2024-01-06T11:07:18;31.73;;;23.77;;
3095;SDS011;1558;42.700;23.360;2024-01-06T11:09:50;23.93;;;20.50;;
3095;SDS011;1558;42.700;23.360;2024-01-06T11:12:22;22.27;;;19.03;;
3095;SDS011;1558;42.700;23.360;2024-01-06T11:14:52;18.33;;;15.87;;
3095;SDS011;1558;42.700;23.360;2024-01-06T11:20:17;20.27;;;15.20;;
3095;SDS011;1558;42.700;23.360;2024-01-06T11:22:46;18.43;;;16.20;;
3095;SDS011;1558;42.700;23.360;2024-01-06T11:25:17;27.73;;;16.47;;
3095;SDS011;1558;42.700;23.360;2024-01-06T11:27:48;19.20;;;13.97;;
3095;SDS011;1558;42.700;23.360;2024-01-06T11:30:21;20.20;;;16.17;;
3095;SDS011;1558;42.700;23.360;2024-01-06T11:32:51;27.67;;;20.53;;
3095;SDS011;1558;42.700;23.360;2024-01-06T11:35:21;13.67;;;11.70;;
3095;SDS011;1558;42.700;23.360;2024-01-06T11:37:51;24.70;;;21.23;;
3095;SDS011;1558;42.700;23.360;2024-01-06T11:40:32;17.07;;;14.43;;
3095;SDS011;1558;42.700;23.360;2024-01-06T11:43:02;15.70;;;11.47;;
3095;SDS011;1558;42.700;23.360;2024-01-06T11:45:33;19.60;;;13.83;;
3095;SDS011;1558;42.700;23.360;2024-01-06T11:48:02;27.27;;;13.07;;
3095;SDS011;1558;42.700;23.360;2024-01-06T11:50:32;18.53;;;13.10;;
3095;SDS011;1558;42.700;23.360;2024-01-06T11:53:03;15.37;;;11.53;;
3095;SDS011;1558;42.700;23.360;2024-01-06T11:55:33;16.53;;;11.83;;
3095;SDS011;1558;42.700;23.360;2024-01-06T11:58:03;15.00;;;12.77;;
3095;SDS011;1558;42.700;23.360;2024-01-06T12:00:32;14.80;;;12.37;;
3095;SDS011;1558;42.700;23.360;2024-01-06T12:03:03;19.30;;;12.80;;
3095;SDS011;1558;42.700;23.360;2024-01-06T12:05:32;11.50;;;10.20;;
3095;SDS011;1558;42.700;23.360;2024-01-06T12:08:01;19.90;;;11.30;;
3095;SDS011;1558;42.700;23.360;2024-01-06T12:10:38;12.77;;;11.37;;
3095;SDS011;1558;42.700;23.360;2024-01-06T12:13:07;13.57;;;11.13;;
3095;SDS011;1558;42.700;23.360;2024-01-06T12:15:37;13.33;;;11.60;;
3095;SDS011;1558;42.700;23.360;2024-01-06T12:18:07;14.50;;;11.73;;
3095;SDS011;1558;42.700;23.360;2024-01-06T12:20:36;22.67;;;13.03;;
3095;SDS011;1558;42.700;23.360;2024-01-06T12:23:05;16.17;;;11.90;;
3095;SDS011;1558;42.700;23.360;2024-01-06T12:25:35;13.10;;;11.77;;
3095;SDS011;1558;42.700;23.360;2024-01-06T12:28:06;15.37;;;11.90;;
3095;SDS011;1558;42.700;23.360;2024-01-06T12:30:35;16.47;;;12.23;;
3095;SDS011;1558;42.700;23.360;2024-01-06T12:33:06;15.93;;;11.83;;
3095;SDS011;1558;42.700;23.360;2024-01-06T12:35:35;20.83;;;14.90;;
3095;SDS011;1558;42.700;23.360;2024-01-06T12:38:10;16.87;;;12.60;;
3095;SDS011;1558;42.700;23.360;2024-01-06T12:40:40;17.47;;;13.67;;
3095;SDS011;1558;42.700;23.360;2024-01-06T12:43:08;20.77;;;13.33;;
3095;SDS011;1558;42.700;23.360;2024-01-06T12:45:36;18.77;;;12.93;;
3095;SDS011;1558;42.700;23.360;2024-01-06T12:48:06;17.10;;;13.43;;
3095;SDS011;1558;42.700;23.360;2024-01-06T12:50:35;17.83;;;15.20;;
3095;SDS011;1558;42.700;23.360;2024-01-06T12:53:04;22.23;;;16.63;;
3095;SDS011;1558;42.700;23.360;2024-01-06T12:55:32;19.40;;;15.40;;
3095;SDS011;1558;42.700;23.360;2024-01-06T12:58:02;23.47;;;16.33;;
3095;SDS011;1558;42.700;23.360;2024-01-06T13:00:30;18.00;;;15.33;;
3095;SDS011;1558;42.700;23.360;2024-01-06T13:03:02;21.40;;;15.97;;
3095;SDS011;1558;42.700;23.360;2024-01-06T13:05:31;19.77;;;14.90;;
3095;SDS011;1558;42.700;23.360;2024-01-06T13:07:59;19.80;;;13.77;;
3095;SDS011;1558;42.700;23.360;2024-01-06T13:10:28;18.23;;;13.90;;
3095;SDS011;1558;42.700;23.360;2024-01-06T13:12:56;13.70;;;11.37;;
3095;SDS011;1558;42.700;23.360;2024-01-06T13:15:26;13.40;;;11.90;;
3095;SDS011;1558;42.700;23.360;2024-01-06T13:17:58;12.20;;;10.87;;
3095;SDS011;1558;42.700;23.360;2024-01-06T13:20:26;17.43;;;14.83;;
3095;SDS011;1558;42.700;23.360;2024-01-06T13:22:55;14.17;;;12.03;;
3095;SDS011;1558;42.700;23.360;2024-01-06T13:25:23;21.80;;;12.67;;
3095;SDS011;1558;42.700;23.360;2024-01-06T13:27:51;17.97;;;12.27;;
3095;SDS011;1558;42.700;23.360;2024-01-06T13:30:20;14.67;;;11.83;;
3095;SDS011;1558;42.700;23.360;2024-01-06T13:32:50;20.03;;;12.50;;
3095;SDS011;1558;42.700;23.360;2024-01-06T13:35:21;15.13;;;11.13;;
3095;SDS011;1558;42.700;23.360;2024-01-06T13:37:51;12.87;;;10.50;;
3095;SDS011;1558;42.700;23.360;2024-01-06T13:40:19;13.20;;;11.57;;
3095;SDS011;1558;42.700;23.360;2024-01-06T13:42:47;15.17;;;12.07;;
3095;SDS011;1558;42.700;23.360;2024-01-06T13:45:17;15.53;;;12.83;;
3095;SDS011;1558;42.700;23.360;2024-01-06T13:47:45;13.13;;;10.90;;
3095;SDS011;1558;42.700;23.360;2024-01-06T13:50:16;14.83;;;10.83;;
3095;SDS011;1558;42.700;23.360;2024-01-06T13:52:46;15.63;;;12.17;;
3095;SDS011;1558;42.700;23.360;2024-01-06T13:55:14;15.17;;;12.97;;
3095;SDS011;1558;42.700;23.360;2024-01-06T13:57:43;14.97;;;12.83;;
3095;SDS011;1558;42.700;23.360;2024-01-06T14:00:12;14.47;;;12.27;;
3095;SDS011;1558;42.700;23.360;2024-01-06T14:02:47;14.60;;;11.63;;
3095;SDS011;1558;42.700;23.360;2024-01-06T14:05:16;18.67;;;13.93;;
3095;SDS011;1558;42.700;23.360;2024-01-06T14:07:46;17.90;;;13.77;;
3095;SDS011;1558;42.700;23.360;2024-01-06T14:10:17;17.87;;;12.10;;
3095;SDS011;1558;42.700;23.360;2024-01-06T14:12:46;18.87;;;13.33;;
3095;SDS011;1558;42.700;23.360;2024-01-06T14:15:16;19.73;;;11.67;;
3095;SDS011;1558;42.700;23.360;2024-01-06T14:17:45;14.57;;;10.30;;
3095;SDS011;1558;42.700;23.360;2024-01-06T14:20:18;14.97;;;10.23;;
3095;SDS011;1558;42.700;23.360;2024-01-06T14:22:47;20.53;;;11.83;;
3095;SDS011;1558;42.700;23.360;2024-01-06T14:25:18;16.17;;;11.47;;
3095;SDS011;1558;42.700;23.360;2024-01-06T14:27:46;16.67;;;12.00;;
3095;SDS011;1558;42.700;23.360;2024-01-06T14:30:15;17.57;;;12.73;;
3095;SDS011;1558;42.700;23.360;2024-01-06T14:32:43;20.80;;;13.27;;
3095;SDS011;1558;42.700;23.360;2024-01-06T14:35:12;18.50;;;13.47;;
3095;SDS011;1558;42.700;23.360;2024-01-06T14:37:42;23.10;;;16.70;;
3095;SDS011;1558;42.700;23.360;2024-01-06T14:40:14;26.03;;;16.60;;
3095;SDS011;1558;42.700;23.360;2024-01-06T14:42:43;17.40;;;11.77;;
3095;SDS011;1558;42.700;23.360;2024-01-06T14:45:12;23.77;;;15.60;;